sensor_id;sensor_type;location;lat;lon;timestamp;temperature;humidity
56172;DHT22;42052;41.634;-0.946;2023-03-23T00:01:25;21.80;39.80
56172;DHT22;42052;41.634;-0.946;2023-03-23T00:04:16;21.80;39.80
56172;DHT22;42052;41.634;-0.946;2023-03-23T00:07:02;21.80;39.90
56172;DHT22;42052;41.634;-0.946;2023-03-23T00:09:49;21.80;39.90
56172;DHT22;42052;41.634;-0.946;2023-03-23T00:12:39;21.80;39.90
56172;DHT22;42052;41.634;-0.946;2023-03-23T00:15:28;21.80;39.90
56172;DHT22;42052;41.634;-0.946;2023-03-23T00:18:20;21.70;39.90
56172;DHT22;42052;41.634;-0.946;2023-03-23T00:21:07;21.80;40.00
56172;DHT22;42052;41.634;-0.946;2023-03-23T00:23:54;21.70;39.90
56172;DHT22;42052;41.634;-0.946;2023-03-23T00:26:41;21.70;39.90
56172;DHT22;42052;41.634;-0.946;2023-03-23T00:29:27;21.70;39.90
56172;DHT22;42052;41.634;-0.946;2023-03-23T00:32:13;21.70;39.90
56172;DHT22;42052;41.634;-0.946;2023-03-23T00:35:00;21.80;39.90
56172;DHT22;42052;41.634;-0.946;2023-03-23T00:37:46;21.80;40.60
56172;DHT22;42052;41.634;-0.946;2023-03-23T00:40:32;21.70;39.90
56172;DHT22;42052;41.634;-0.946;2023-03-23T00:43:21;21.70;39.90
56172;DHT22;42052;41.634;-0.946;2023-03-23T00:46:10;21.70;39.90
56172;DHT22;42052;41.634;-0.946;2023-03-23T00:48:57;21.70;39.90
56172;DHT22;42052;41.634;-0.946;2023-03-23T00:51:43;21.70;39.90
56172;DHT22;42052;41.634;-0.946;2023-03-23T00:54:30;21.70;39.90
56172;DHT22;42052;41.634;-0.946;2023-03-23T00:57:16;21.70;40.00
56172;DHT22;42052;41.634;-0.946;2023-03-23T01:00:04;21.70;39.90
56172;DHT22;42052;41.634;-0.946;2023-03-23T01:02:55;21.80;40.00
56172;DHT22;42052;41.634;-0.946;2023-03-23T01:05:41;21.70;39.90
56172;DHT22;42052;41.634;-0.946;2023-03-23T01:08:27;21.70;40.00
56172;DHT22;42052;41.634;-0.946;2023-03-23T01:11:15;21.70;40.00
56172;DHT22;42052;41.634;-0.946;2023-03-23T01:14:02;21.70;39.90
56172;DHT22;42052;41.634;-0.946;2023-03-23T01:16:48;21.70;39.90
56172;DHT22;42052;41.634;-0.946;2023-03-23T01:19:35;21.70;39.90
56172;DHT22;42052;41.634;-0.946;2023-03-23T01:22:21;21.70;39.90
56172;DHT22;42052;41.634;-0.946;2023-03-23T01:25:08;21.70;40.00
56172;DHT22;42052;41.634;-0.946;2023-03-23T01:27:55;21.70;40.00
56172;DHT22;42052;41.634;-0.946;2023-03-23T01:30:42;21.70;39.90
56172;DHT22;42052;41.634;-0.946;2023-03-23T01:33:29;21.70;39.90
56172;DHT22;42052;41.634;-0.946;2023-03-23T01:36:17;21.70;39.90
56172;DHT22;42052;41.634;-0.946;2023-03-23T01:39:05;21.70;40.00
56172;DHT22;42052;41.634;-0.946;2023-03-23T01:41:51;21.70;40.00
56172;DHT22;42052;41.634;-0.946;2023-03-23T01:47:23;21.70;40.00
56172;DHT22;42052;41.634;-0.946;2023-03-23T01:50:12;21.70;40.00
56172;DHT22;42052;41.634;-0.946;2023-03-23T01:52:59;21.70;40.00
56172;DHT22;42052;41.634;-0.946;2023-03-23T01:55:49;21.70;40.00
56172;DHT22;42052;41.634;-0.946;2023-03-23T01:58:38;21.70;40.00
56172;DHT22;42052;41.634;-0.946;2023-03-23T02:01:25;21.70;40.00
56172;DHT22;42052;41.634;-0.946;2023-03-23T02:04:13;21.70;39.90
56172;DHT22;42052;41.634;-0.946;2023-03-23T02:07:00;21.70;39.90
56172;DHT22;42052;41.634;-0.946;2023-03-23T02:09:49;21.70;39.90
56172;DHT22;42052;41.634;-0.946;2023-03-23T02:12:35;21.70;39.90
56172;DHT22;42052;41.634;-0.946;2023-03-23T02:15:21;21.70;40.00
56172;DHT22;42052;41.634;-0.946;2023-03-23T02:36:15;21.70;40.00
56172;DHT22;42052;41.634;-0.946;2023-03-23T02:39:17;21.70;40.00
56172;DHT22;42052;41.634;-0.946;2023-03-23T02:42:06;21.70;40.10
56172;DHT22;42052;41.634;-0.946;2023-03-23T02:44:53;21.70;40.00
56172;DHT22;42052;41.634;-0.946;2023-03-23T02:47:41;21.70;40.00
56172;DHT22;42052;41.634;-0.946;2023-03-23T02:50:29;21.70;40.10
56172;DHT22;42052;41.634;-0.946;2023-03-23T02:53:21;21.70;40.10
56172;DHT22;42052;41.634;-0.946;2023-03-23T02:56:09;21.70;40.80
56172;DHT22;42052;41.634;-0.946;2023-03-23T02:58:56;21.70;40.10
56172;DHT22;42052;41.634;-0.946;2023-03-23T03:04:30;21.70;40.80
56172;DHT22;42052;41.634;-0.946;2023-03-23T03:14:00;21.70;40.10
56172;DHT22;42052;41.634;-0.946;2023-03-23T03:17:06;21.70;40.10
56172;DHT22;42052;41.634;-0.946;2023-03-23T03:20:02;21.70;40.10
56172;DHT22;42052;41.634;-0.946;2023-03-23T03:22:55;21.70;40.10
56172;DHT22;42052;41.634;-0.946;2023-03-23T03:25:43;21.70;40.10
56172;DHT22;42052;41.634;-0.946;2023-03-23T03:28:33;21.70;40.10
56172;DHT22;42052;41.634;-0.946;2023-03-23T03:31:26;21.70;40.10
56172;DHT22;42052;41.634;-0.946;2023-03-23T03:34:14;21.70;40.10
56172;DHT22;42052;41.634;-0.946;2023-03-23T03:37:04;21.70;40.10
56172;DHT22;42052;41.634;-0.946;2023-03-23T03:39:51;21.70;40.10
56172;DHT22;42052;41.634;-0.946;2023-03-23T03:42:39;21.70;40.10
56172;DHT22;42052;41.634;-0.946;2023-03-23T03:45:25;21.70;40.10
56172;DHT22;42052;41.634;-0.946;2023-03-23T03:48:11;21.70;40.20
56172;DHT22;42052;41.634;-0.946;2023-03-23T03:50:57;21.70;40.20
56172;DHT22;42052;41.634;-0.946;2023-03-23T03:53:46;21.70;40.20
56172;DHT22;42052;41.634;-0.946;2023-03-23T03:56:32;21.70;40.20
56172;DHT22;42052;41.634;-0.946;2023-03-23T03:59:21;21.70;40.20
56172;DHT22;42052;41.634;-0.946;2023-03-23T04:02:07;21.60;40.20
56172;DHT22;42052;41.634;-0.946;2023-03-23T04:04:54;21.60;40.20
56172;DHT22;42052;41.634;-0.946;2023-03-23T04:07:40;21.60;40.20
56172;DHT22;42052;41.634;-0.946;2023-03-23T04:10:28;21.60;40.30
56172;DHT22;42052;41.634;-0.946;2023-03-23T04:13:15;21.60;40.20
56172;DHT22;42052;41.634;-0.946;2023-03-23T04:16:01;21.60;40.20
56172;DHT22;42052;41.634;-0.946;2023-03-23T04:18:47;21.60;40.20
56172;DHT22;42052;41.634;-0.946;2023-03-23T04:21:34;21.60;40.20
56172;DHT22;42052;41.634;-0.946;2023-03-23T04:24:21;21.60;40.30
56172;DHT22;42052;41.634;-0.946;2023-03-23T04:27:09;21.60;40.20
56172;DHT22;42052;41.634;-0.946;2023-03-23T04:29:59;21.60;40.30
56172;DHT22;42052;41.634;-0.946;2023-03-23T04:32:46;21.60;40.30
56172;DHT22;42052;41.634;-0.946;2023-03-23T04:35:36;21.60;40.30
56172;DHT22;42052;41.634;-0.946;2023-03-23T04:38:23;21.60;40.30
56172;DHT22;42052;41.634;-0.946;2023-03-23T04:41:10;21.60;40.30
56172;DHT22;42052;41.634;-0.946;2023-03-23T04:43:57;21.60;40.30
56172;DHT22;42052;41.634;-0.946;2023-03-23T04:46:48;21.60;40.40
56172;DHT22;42052;41.634;-0.946;2023-03-23T04:49:39;21.60;40.40
56172;DHT22;42052;41.634;-0.946;2023-03-23T04:52:26;21.60;40.30
56172;DHT22;42052;41.634;-0.946;2023-03-23T04:55:14;21.60;40.30
56172;DHT22;42052;41.634;-0.946;2023-03-23T04:58:00;21.60;40.40
56172;DHT22;42052;41.634;-0.946;2023-03-23T05:00:47;21.60;40.40
56172;DHT22;42052;41.634;-0.946;2023-03-23T05:03:35;21.60;40.40
56172;DHT22;42052;41.634;-0.946;2023-03-23T05:06:21;21.60;40.30
56172;DHT22;42052;41.634;-0.946;2023-03-23T05:09:08;21.60;40.40
56172;DHT22;42052;41.634;-0.946;2023-03-23T05:11:54;21.60;40.40
56172;DHT22;42052;41.634;-0.946;2023-03-23T05:14:42;21.60;40.40
56172;DHT22;42052;41.634;-0.946;2023-03-23T05:17:29;21.60;40.40
56172;DHT22;42052;41.634;-0.946;2023-03-23T05:20:16;21.60;40.40
56172;DHT22;42052;41.634;-0.946;2023-03-23T05:23:06;21.60;40.40
56172;DHT22;42052;41.634;-0.946;2023-03-23T05:25:56;21.60;40.40
56172;DHT22;42052;41.634;-0.946;2023-03-23T05:28:46;21.60;40.40
56172;DHT22;42052;41.634;-0.946;2023-03-23T05:31:32;21.60;40.40
56172;DHT22;42052;41.634;-0.946;2023-03-23T05:34:19;21.60;40.40
56172;DHT22;42052;41.634;-0.946;2023-03-23T05:37:05;21.60;40.50
56172;DHT22;42052;41.634;-0.946;2023-03-23T05:39:51;21.60;40.50
56172;DHT22;42052;41.634;-0.946;2023-03-23T05:42:39;21.60;40.50
56172;DHT22;42052;41.634;-0.946;2023-03-23T05:45:26;21.60;40.50
56172;DHT22;42052;41.634;-0.946;2023-03-23T05:48:13;21.60;40.60
56172;DHT22;42052;41.634;-0.946;2023-03-23T05:50:59;21.60;40.50
56172;DHT22;42052;41.634;-0.946;2023-03-23T05:53:45;21.60;40.50
56172;DHT22;42052;41.634;-0.946;2023-03-23T05:56:33;21.60;40.50
56172;DHT22;42052;41.634;-0.946;2023-03-23T05:59:19;21.60;40.60
56172;DHT22;42052;41.634;-0.946;2023-03-23T06:02:05;21.60;40.50
56172;DHT22;42052;41.634;-0.946;2023-03-23T06:04:51;21.60;40.60
56172;DHT22;42052;41.634;-0.946;2023-03-23T06:07:43;21.60;40.60
56172;DHT22;42052;41.634;-0.946;2023-03-23T06:10:29;21.60;40.50
56172;DHT22;42052;41.634;-0.946;2023-03-23T06:13:16;21.60;40.80
56172;DHT22;42052;41.634;-0.946;2023-03-23T06:16:03;21.60;40.60
56172;DHT22;42052;41.634;-0.946;2023-03-23T06:18:50;21.50;40.50
56172;DHT22;42052;41.634;-0.946;2023-03-23T06:21:37;21.60;40.50
56172;DHT22;42052;41.634;-0.946;2023-03-23T06:24:23;21.60;40.60
56172;DHT22;42052;41.634;-0.946;2023-03-23T06:27:09;21.60;40.60
56172;DHT22;42052;41.634;-0.946;2023-03-23T06:29:55;21.60;40.60
56172;DHT22;42052;41.634;-0.946;2023-03-23T06:32:42;21.60;40.60
56172;DHT22;42052;41.634;-0.946;2023-03-23T06:35:32;21.60;40.60
56172;DHT22;42052;41.634;-0.946;2023-03-23T06:38:18;21.60;40.60
56172;DHT22;42052;41.634;-0.946;2023-03-23T06:41:05;21.50;40.60
56172;DHT22;42052;41.634;-0.946;2023-03-23T06:43:51;21.60;40.70
56172;DHT22;42052;41.634;-0.946;2023-03-23T06:46:37;21.60;40.70
56172;DHT22;42052;41.634;-0.946;2023-03-23T06:49:23;21.60;40.70
56172;DHT22;42052;41.634;-0.946;2023-03-23T06:52:10;21.50;40.60
56172;DHT22;42052;41.634;-0.946;2023-03-23T06:54:56;21.60;40.60
56172;DHT22;42052;41.634;-0.946;2023-03-23T06:57:42;21.50;40.60
56172;DHT22;42052;41.634;-0.946;2023-03-23T07:00:29;21.50;40.70
56172;DHT22;42052;41.634;-0.946;2023-03-23T07:03:15;21.50;40.60
56172;DHT22;42052;41.634;-0.946;2023-03-23T07:06:01;21.50;40.60
56172;DHT22;42052;41.634;-0.946;2023-03-23T07:08:49;21.50;40.60
56172;DHT22;42052;41.634;-0.946;2023-03-23T07:11:35;21.50;40.70
56172;DHT22;42052;41.634;-0.946;2023-03-23T07:14:21;21.50;40.70
56172;DHT22;42052;41.634;-0.946;2023-03-23T07:17:08;21.50;40.60
56172;DHT22;42052;41.634;-0.946;2023-03-23T07:19:55;21.50;40.60
56172;DHT22;42052;41.634;-0.946;2023-03-23T07:22:41;21.50;40.70
56172;DHT22;42052;41.634;-0.946;2023-03-23T07:25:27;21.50;40.70
56172;DHT22;42052;41.634;-0.946;2023-03-23T07:28:14;21.50;40.70
56172;DHT22;42052;41.634;-0.946;2023-03-23T07:31:00;21.50;40.70
56172;DHT22;42052;41.634;-0.946;2023-03-23T07:33:47;21.50;40.70
56172;DHT22;42052;41.634;-0.946;2023-03-23T07:36:33;21.50;40.80
56172;DHT22;42052;41.634;-0.946;2023-03-23T07:39:23;21.50;40.70
56172;DHT22;42052;41.634;-0.946;2023-03-23T07:42:11;21.50;40.70
56172;DHT22;42052;41.634;-0.946;2023-03-23T07:44:57;21.50;40.70
56172;DHT22;42052;41.634;-0.946;2023-03-23T07:47:43;21.50;40.70
56172;DHT22;42052;41.634;-0.946;2023-03-23T07:50:29;21.50;40.80
56172;DHT22;42052;41.634;-0.946;2023-03-23T07:53:16;21.50;40.80
56172;DHT22;42052;41.634;-0.946;2023-03-23T07:56:02;21.50;40.80
56172;DHT22;42052;41.634;-0.946;2023-03-23T07:58:49;21.50;40.80
56172;DHT22;42052;41.634;-0.946;2023-03-23T08:01:35;21.50;40.80
56172;DHT22;42052;41.634;-0.946;2023-03-23T08:04:21;21.50;40.80
56172;DHT22;42052;41.634;-0.946;2023-03-23T08:07:08;21.50;40.80
56172;DHT22;42052;41.634;-0.946;2023-03-23T08:09:54;21.50;40.80
56172;DHT22;42052;41.634;-0.946;2023-03-23T08:12:42;21.50;40.70
56172;DHT22;42052;41.634;-0.946;2023-03-23T08:15:28;21.50;40.80
56172;DHT22;42052;41.634;-0.946;2023-03-23T08:18:15;21.50;40.80
56172;DHT22;42052;41.634;-0.946;2023-03-23T08:21:02;21.50;40.80
56172;DHT22;42052;41.634;-0.946;2023-03-23T08:23:50;21.50;40.70
56172;DHT22;42052;41.634;-0.946;2023-03-23T08:26:36;21.50;41.50
56172;DHT22;42052;41.634;-0.946;2023-03-23T08:29:24;21.50;40.80
56172;DHT22;42052;41.634;-0.946;2023-03-23T08:32:10;21.50;40.70
56172;DHT22;42052;41.634;-0.946;2023-03-23T08:34:56;21.50;40.70
56172;DHT22;42052;41.634;-0.946;2023-03-23T08:37:44;21.50;40.80
56172;DHT22;42052;41.634;-0.946;2023-03-23T08:40:30;21.50;40.80
56172;DHT22;42052;41.634;-0.946;2023-03-23T08:43:18;21.50;40.80
56172;DHT22;42052;41.634;-0.946;2023-03-23T08:46:04;21.50;40.80
56172;DHT22;42052;41.634;-0.946;2023-03-23T08:48:54;21.50;40.80
56172;DHT22;42052;41.634;-0.946;2023-03-23T08:51:41;21.50;40.70
56172;DHT22;42052;41.634;-0.946;2023-03-23T08:54:28;21.50;40.70
56172;DHT22;42052;41.634;-0.946;2023-03-23T08:57:16;21.50;40.70
56172;DHT22;42052;41.634;-0.946;2023-03-23T09:00:06;21.50;40.70
56172;DHT22;42052;41.634;-0.946;2023-03-23T09:03:03;21.50;40.70
56172;DHT22;42052;41.634;-0.946;2023-03-23T09:05:50;21.50;40.70
56172;DHT22;42052;41.634;-0.946;2023-03-23T09:08:36;21.50;40.70
56172;DHT22;42052;41.634;-0.946;2023-03-23T09:11:23;21.60;40.80
56172;DHT22;42052;41.634;-0.946;2023-03-23T09:14:10;21.60;40.70
56172;DHT22;42052;41.634;-0.946;2023-03-23T09:16:56;21.60;40.70
56172;DHT22;42052;41.634;-0.946;2023-03-23T09:19:43;21.50;40.60
56172;DHT22;42052;41.634;-0.946;2023-03-23T09:22:29;21.50;40.60
56172;DHT22;42052;41.634;-0.946;2023-03-23T09:25:17;21.50;40.60
56172;DHT22;42052;41.634;-0.946;2023-03-23T09:28:06;21.50;40.70
56172;DHT22;42052;41.634;-0.946;2023-03-23T09:30:55;21.60;40.70
56172;DHT22;42052;41.634;-0.946;2023-03-23T09:33:43;21.50;40.70
56172;DHT22;42052;41.634;-0.946;2023-03-23T09:36:31;21.50;40.70
56172;DHT22;42052;41.634;-0.946;2023-03-23T09:39:18;21.50;40.60
56172;DHT22;42052;41.634;-0.946;2023-03-23T09:51:04;21.60;40.60
56172;DHT22;42052;41.634;-0.946;2023-03-23T09:54:14;21.60;40.60
56172;DHT22;42052;41.634;-0.946;2023-03-23T09:57:05;21.60;40.60
56172;DHT22;42052;41.634;-0.946;2023-03-23T10:00:04;21.60;40.60
56172;DHT22;42052;41.634;-0.946;2023-03-23T10:03:06;21.60;40.60
56172;DHT22;42052;41.634;-0.946;2023-03-23T10:05:54;21.60;40.60
56172;DHT22;42052;41.634;-0.946;2023-03-23T10:08:52;21.60;40.60
56172;DHT22;42052;41.634;-0.946;2023-03-23T10:15:17;21.60;40.70
56172;DHT22;42052;41.634;-0.946;2023-03-23T10:18:17;21.60;40.70
56172;DHT22;42052;41.634;-0.946;2023-03-23T10:21:04;21.60;40.70
56172;DHT22;42052;41.634;-0.946;2023-03-23T10:36:15;21.60;41.40
56172;DHT22;42052;41.634;-0.946;2023-03-23T10:41:53;21.70;40.60
56172;DHT22;42052;41.634;-0.946;2023-03-23T10:44:40;21.70;40.60
56172;DHT22;42052;41.634;-0.946;2023-03-23T10:47:26;21.70;40.60
56172;DHT22;42052;41.634;-0.946;2023-03-23T10:50:15;21.70;40.60
56172;DHT22;42052;41.634;-0.946;2023-03-23T10:53:11;21.70;40.50
56172;DHT22;42052;41.634;-0.946;2023-03-23T10:55:59;21.70;40.50
56172;DHT22;42052;41.634;-0.946;2023-03-23T10:58:45;21.80;40.60
56172;DHT22;42052;41.634;-0.946;2023-03-23T11:01:33;21.70;40.50
56172;DHT22;42052;41.634;-0.946;2023-03-23T11:04:21;21.70;40.50
56172;DHT22;42052;41.634;-0.946;2023-03-23T11:07:20;21.80;40.60
56172;DHT22;42052;41.634;-0.946;2023-03-23T11:10:25;21.80;40.50
56172;DHT22;42052;41.634;-0.946;2023-03-23T11:13:14;21.80;40.50
56172;DHT22;42052;41.634;-0.946;2023-03-23T11:16:01;21.80;40.50
56172;DHT22;42052;41.634;-0.946;2023-03-23T11:18:47;21.80;40.50
56172;DHT22;42052;41.634;-0.946;2023-03-23T11:21:33;21.80;40.50
56172;DHT22;42052;41.634;-0.946;2023-03-23T11:24:22;21.80;40.50
56172;DHT22;42052;41.634;-0.946;2023-03-23T11:27:10;21.80;40.50
56172;DHT22;42052;41.634;-0.946;2023-03-23T11:30:20;21.80;40.40
56172;DHT22;42052;41.634;-0.946;2023-03-23T11:33:08;21.80;40.50
56172;DHT22;42052;41.634;-0.946;2023-03-23T11:35:54;21.80;40.50
56172;DHT22;42052;41.634;-0.946;2023-03-23T11:38:43;21.90;40.50
56172;DHT22;42052;41.634;-0.946;2023-03-23T11:41:35;21.90;40.40
56172;DHT22;42052;41.634;-0.946;2023-03-23T11:44:23;21.80;40.40
56172;DHT22;42052;41.634;-0.946;2023-03-23T11:51:00;21.90;40.40
56172;DHT22;42052;41.634;-0.946;2023-03-23T11:57:00;21.90;40.30
56172;DHT22;42052;41.634;-0.946;2023-03-23T11:59:46;21.90;40.30
56172;DHT22;42052;41.634;-0.946;2023-03-23T12:06:12;21.90;41.00
56172;DHT22;42052;41.634;-0.946;2023-03-23T12:15:18;21.90;40.20
56172;DHT22;42052;41.634;-0.946;2023-03-23T12:21:28;22.00;40.20
56172;DHT22;42052;41.634;-0.946;2023-03-23T12:45:45;22.00;40.10
56172;DHT22;42052;41.634;-0.946;2023-03-23T12:48:56;22.00;40.00
56172;DHT22;42052;41.634;-0.946;2023-03-23T12:58:22;22.10;40.00
56172;DHT22;42052;41.634;-0.946;2023-03-23T13:01:17;22.00;39.90
56172;DHT22;42052;41.634;-0.946;2023-03-23T13:04:11;22.00;39.90
56172;DHT22;42052;41.634;-0.946;2023-03-23T13:07:00;22.00;39.90
56172;DHT22;42052;41.634;-0.946;2023-03-23T13:09:58;22.10;39.90
56172;DHT22;42052;41.634;-0.946;2023-03-23T13:12:50;22.10;39.90
56172;DHT22;42052;41.634;-0.946;2023-03-23T13:19:13;22.10;39.90
56172;DHT22;42052;41.634;-0.946;2023-03-23T13:22:11;22.10;39.90
56172;DHT22;42052;41.634;-0.946;2023-03-23T13:25:02;22.10;39.90
56172;DHT22;42052;41.634;-0.946;2023-03-23T13:27:59;22.10;39.90
56172;DHT22;42052;41.634;-0.946;2023-03-23T13:31:01;22.10;39.90
56172;DHT22;42052;41.634;-0.946;2023-03-23T13:33:53;22.10;39.80
56172;DHT22;42052;41.634;-0.946;2023-03-23T13:36:51;22.10;39.90
56172;DHT22;42052;41.634;-0.946;2023-03-23T13:39:52;22.10;39.80
56172;DHT22;42052;41.634;-0.946;2023-03-23T13:42:50;22.10;39.80
56172;DHT22;42052;41.634;-0.946;2023-03-23T13:45:46;22.10;39.80
56172;DHT22;42052;41.634;-0.946;2023-03-23T13:48:50;22.10;39.70
56172;DHT22;42052;41.634;-0.946;2023-03-23T13:52:05;22.10;39.70
56172;DHT22;42052;41.634;-0.946;2023-03-23T13:55:13;22.20;39.70
56172;DHT22;42052;41.634;-0.946;2023-03-23T14:03:49;22.10;39.60
56172;DHT22;42052;41.634;-0.946;2023-03-23T14:06:38;22.20;40.20
56172;DHT22;42052;41.634;-0.946;2023-03-23T14:09:37;22.20;39.60
56172;DHT22;42052;41.634;-0.946;2023-03-23T14:12:28;22.10;39.50
56172;DHT22;42052;41.634;-0.946;2023-03-23T14:15:15;22.10;39.60
56172;DHT22;42052;41.634;-0.946;2023-03-23T14:18:03;22.10;39.60
56172;DHT22;42052;41.634;-0.946;2023-03-23T14:20:50;22.20;39.80
56172;DHT22;42052;41.634;-0.946;2023-03-23T14:23:36;22.10;39.60
56172;DHT22;42052;41.634;-0.946;2023-03-23T14:26:23;22.10;39.50
56172;DHT22;42052;41.634;-0.946;2023-03-23T14:29:11;22.10;39.60
56172;DHT22;42052;41.634;-0.946;2023-03-23T14:31:59;22.20;39.70
56172;DHT22;42052;41.634;-0.946;2023-03-23T14:34:47;22.20;39.60
56172;DHT22;42052;41.634;-0.946;2023-03-23T14:37:34;22.20;39.60
56172;DHT22;42052;41.634;-0.946;2023-03-23T14:40:21;22.20;39.70
56172;DHT22;42052;41.634;-0.946;2023-03-23T14:43:10;22.20;39.60
56172;DHT22;42052;41.634;-0.946;2023-03-23T14:46:02;22.20;39.50
56172;DHT22;42052;41.634;-0.946;2023-03-23T14:48:51;22.20;39.60
56172;DHT22;42052;41.634;-0.946;2023-03-23T14:51:37;22.20;39.50
56172;DHT22;42052;41.634;-0.946;2023-03-23T14:54:26;22.20;39.50
56172;DHT22;42052;41.634;-0.946;2023-03-23T14:57:33;22.20;39.50
56172;DHT22;42052;41.634;-0.946;2023-03-23T15:00:26;22.20;39.50
56172;DHT22;42052;41.634;-0.946;2023-03-23T15:03:16;22.20;39.40
56172;DHT22;42052;41.634;-0.946;2023-03-23T15:06:09;22.20;39.50
56172;DHT22;42052;41.634;-0.946;2023-03-23T15:08:59;22.20;39.50
56172;DHT22;42052;41.634;-0.946;2023-03-23T15:12:03;22.20;39.50
56172;DHT22;42052;41.634;-0.946;2023-03-23T15:14:52;22.20;39.50
56172;DHT22;42052;41.634;-0.946;2023-03-23T15:17:39;22.20;39.50
56172;DHT22;42052;41.634;-0.946;2023-03-23T15:20:47;22.20;39.40
56172;DHT22;42052;41.634;-0.946;2023-03-23T15:23:33;22.30;39.50
56172;DHT22;42052;41.634;-0.946;2023-03-23T15:29:20;22.30;39.50
56172;DHT22;42052;41.634;-0.946;2023-03-23T15:32:10;22.30;39.40
56172;DHT22;42052;41.634;-0.946;2023-03-23T15:34:57;22.20;39.50
56172;DHT22;42052;41.634;-0.946;2023-03-23T15:37:58;22.20;39.60
56172;DHT22;42052;41.634;-0.946;2023-03-23T15:40:49;22.20;39.50
56172;DHT22;42052;41.634;-0.946;2023-03-23T15:43:51;22.30;39.50
56172;DHT22;42052;41.634;-0.946;2023-03-23T15:46:52;22.30;39.60
56172;DHT22;42052;41.634;-0.946;2023-03-23T15:49:38;22.20;39.50
56172;DHT22;42052;41.634;-0.946;2023-03-23T15:52:25;22.20;39.50
56172;DHT22;42052;41.634;-0.946;2023-03-23T15:55:36;22.20;39.50
56172;DHT22;42052;41.634;-0.946;2023-03-23T15:58:23;22.30;39.40
56172;DHT22;42052;41.634;-0.946;2023-03-23T16:01:21;22.30;39.40
56172;DHT22;42052;41.634;-0.946;2023-03-23T16:04:10;22.30;39.40
56172;DHT22;42052;41.634;-0.946;2023-03-23T16:06:57;22.30;39.50
56172;DHT22;42052;41.634;-0.946;2023-03-23T16:09:44;22.30;39.60
56172;DHT22;42052;41.634;-0.946;2023-03-23T16:12:30;22.30;39.50
56172;DHT22;42052;41.634;-0.946;2023-03-23T16:15:17;22.30;39.50
56172;DHT22;42052;41.634;-0.946;2023-03-23T16:18:03;22.30;39.40
56172;DHT22;42052;41.634;-0.946;2023-03-23T16:20:49;22.30;39.40
56172;DHT22;42052;41.634;-0.946;2023-03-23T16:23:35;22.30;39.40
56172;DHT22;42052;41.634;-0.946;2023-03-23T16:26:22;22.30;39.40
56172;DHT22;42052;41.634;-0.946;2023-03-23T16:29:11;22.30;39.40
56172;DHT22;42052;41.634;-0.946;2023-03-23T16:31:58;22.30;39.50
56172;DHT22;42052;41.634;-0.946;2023-03-23T16:34:44;22.30;39.50
56172;DHT22;42052;41.634;-0.946;2023-03-23T16:37:31;22.30;39.40
56172;DHT22;42052;41.634;-0.946;2023-03-23T16:40:19;22.30;39.40
56172;DHT22;42052;41.634;-0.946;2023-03-23T16:43:07;22.30;39.50
56172;DHT22;42052;41.634;-0.946;2023-03-23T16:45:55;22.30;39.40
56172;DHT22;42052;41.634;-0.946;2023-03-23T16:48:41;22.30;39.40
56172;DHT22;42052;41.634;-0.946;2023-03-23T16:51:28;22.30;39.60
56172;DHT22;42052;41.634;-0.946;2023-03-23T16:54:14;22.30;39.50
56172;DHT22;42052;41.634;-0.946;2023-03-23T16:57:00;22.30;39.60
56172;DHT22;42052;41.634;-0.946;2023-03-23T16:59:46;22.30;39.60
56172;DHT22;42052;41.634;-0.946;2023-03-23T17:02:33;22.30;39.60
56172;DHT22;42052;41.634;-0.946;2023-03-23T17:05:21;22.30;39.50
56172;DHT22;42052;41.634;-0.946;2023-03-23T17:08:08;22.30;39.70
56172;DHT22;42052;41.634;-0.946;2023-03-23T17:10:54;22.30;39.70
56172;DHT22;42052;41.634;-0.946;2023-03-23T17:13:40;22.30;39.60
56172;DHT22;42052;41.634;-0.946;2023-03-23T17:16:27;22.30;39.60
56172;DHT22;42052;41.634;-0.946;2023-03-23T17:19:13;22.30;39.60
56172;DHT22;42052;41.634;-0.946;2023-03-23T17:22:00;22.30;39.50
56172;DHT22;42052;41.634;-0.946;2023-03-23T17:24:46;22.20;39.60
56172;DHT22;42052;41.634;-0.946;2023-03-23T17:27:33;22.30;39.60
56172;DHT22;42052;41.634;-0.946;2023-03-23T17:30:19;22.20;39.50
56172;DHT22;42052;41.634;-0.946;2023-03-23T17:33:05;22.20;39.40
56172;DHT22;42052;41.634;-0.946;2023-03-23T17:35:52;22.20;39.50
56172;DHT22;42052;41.634;-0.946;2023-03-23T17:38:39;22.30;39.60
56172;DHT22;42052;41.634;-0.946;2023-03-23T17:41:25;22.20;39.50
56172;DHT22;42052;41.634;-0.946;2023-03-23T17:44:11;22.20;39.50
56172;DHT22;42052;41.634;-0.946;2023-03-23T17:46:57;22.20;39.50
56172;DHT22;42052;41.634;-0.946;2023-03-23T17:49:45;22.20;39.50
56172;DHT22;42052;41.634;-0.946;2023-03-23T17:52:32;22.20;39.50
56172;DHT22;42052;41.634;-0.946;2023-03-23T17:55:18;22.20;39.50
56172;DHT22;42052;41.634;-0.946;2023-03-23T17:58:05;22.20;39.50
56172;DHT22;42052;41.634;-0.946;2023-03-23T18:00:52;22.30;39.50
56172;DHT22;42052;41.634;-0.946;2023-03-23T18:03:38;22.30;39.50
56172;DHT22;42052;41.634;-0.946;2023-03-23T18:06:24;22.20;39.50
56172;DHT22;42052;41.634;-0.946;2023-03-23T18:09:11;22.30;39.50
56172;DHT22;42052;41.634;-0.946;2023-03-23T18:11:58;22.30;39.50
56172;DHT22;42052;41.634;-0.946;2023-03-23T18:14:44;22.20;39.40
56172;DHT22;42052;41.634;-0.946;2023-03-23T18:17:31;22.30;39.50
56172;DHT22;42052;41.634;-0.946;2023-03-23T18:20:18;22.20;39.50
56172;DHT22;42052;41.634;-0.946;2023-03-23T18:23:06;22.30;39.60
56172;DHT22;42052;41.634;-0.946;2023-03-23T18:25:53;22.30;39.60
56172;DHT22;42052;41.634;-0.946;2023-03-23T18:28:39;22.30;39.50
56172;DHT22;42052;41.634;-0.946;2023-03-23T18:31:28;22.30;39.50
56172;DHT22;42052;41.634;-0.946;2023-03-23T18:34:14;22.30;39.60
56172;DHT22;42052;41.634;-0.946;2023-03-23T18:37:00;22.30;39.70
56172;DHT22;42052;41.634;-0.946;2023-03-23T18:39:47;22.20;39.60
56172;DHT22;42052;41.634;-0.946;2023-03-23T18:42:33;22.20;39.60
56172;DHT22;42052;41.634;-0.946;2023-03-23T18:45:19;22.20;39.60
56172;DHT22;42052;41.634;-0.946;2023-03-23T18:48:06;22.30;39.70
56172;DHT22;42052;41.634;-0.946;2023-03-23T18:50:55;22.20;39.70
56172;DHT22;42052;41.634;-0.946;2023-03-23T18:53:42;22.20;39.70
56172;DHT22;42052;41.634;-0.946;2023-03-23T18:56:28;22.30;39.70
56172;DHT22;42052;41.634;-0.946;2023-03-23T18:59:15;22.30;39.70
56172;DHT22;42052;41.634;-0.946;2023-03-23T19:02:01;22.30;39.70
56172;DHT22;42052;41.634;-0.946;2023-03-23T19:04:48;22.20;39.70
56172;DHT22;42052;41.634;-0.946;2023-03-23T19:07:35;22.30;39.80
56172;DHT22;42052;41.634;-0.946;2023-03-23T19:10:21;22.20;39.70
56172;DHT22;42052;41.634;-0.946;2023-03-23T19:13:08;22.30;39.80
56172;DHT22;42052;41.634;-0.946;2023-03-23T19:15:54;22.30;39.80
56172;DHT22;42052;41.634;-0.946;2023-03-23T19:18:41;22.30;39.80
56172;DHT22;42052;41.634;-0.946;2023-03-23T19:21:28;22.30;39.80
56172;DHT22;42052;41.634;-0.946;2023-03-23T19:24:16;22.30;39.80
56172;DHT22;42052;41.634;-0.946;2023-03-23T19:27:02;22.30;39.90